LBSFLATI

Guest
Details From LBSF - Sofia
To LATI - Tirana Rinas
Flight Number -
Tags generated
Created
Modified
Stats Distance 183 nm / 338 km
Max Altitude 20,900 ft / 6,370 m
Waypoints 3
Social Downloads 1
Likes 0
Share VATSIM

Download

Looking for another format? Having issues loading an existing format? Contact us
Advertisement - Login to hide

Notes

Basic altitude profile: - Ascent Rate: 2500ft/min - Ascent Speed: 250kts - Cruise Altitude: 35000ft - Cruise Speed: 420kts - Descent Rate: 1500ft/min - Descent Speed: 250kts Options: - Use NATs: yes - Use PACOTS: yes - Use low airways: yes - Use high airways: yes

Route

LBSF OLOTA LATI

ID Type Via Altitude Latitude Longitude Leg Dist Tot Dist Heading (true) Name
O LBSF APT - 0 ft / 0 m 42.69713˚ 23.41672˚ - 0 nm - Sofia
OLOTA FIX - 20,900 ft / 6,370 m 42.23000˚ 21.61667˚ 84 nm 84 nm 251° / 250° -
O LATI APT - 0 ft / 0 m 41.41473˚ 19.72057˚ 97 nm 182 nm 241° / 239° Tirana Rinas

Altitude Profile

Advertisement - Login to hide

Weather


0- 5 10 15 20 25 30 35+ Temperature / ° C

Clouds and Precipitation
Forecast for 2017-12-14 18:00 UTC. Updated 2 hours ago

Ground ~20,000 ft ~40,000 ft Winds

LBSF

Details ICAO LBSF (SOF)
Name Sofia
Region Bulgaria
Timezone Europe/Sofia (UTC+2.0)
Stats Elevation 1,741 ft / 531 m (AMSL)
Location 42.697130° 23.416722°
Runways 1
Magnetic Variation 4.934° E

METAR

LBSF 141900Z 31007KT 280V340 9999 FEW066 08/01 Q1012 NOSIG

Decode

TAF

TAF LBSF 141700Z 1418/1518 28010KT 9999 SCT040 BKN060 BECMG 1420/1422 VRB04KT 6000 SCT060 TEMPO 1501/1507 3000 BR SCT010 BECMG 1510/1512 13010KT SCT040 BKN060 PROB40 TEMPO 1513/1518 20016G26KT

Decode

Departure Runways

ID Width Length Bearing (true) Bearing (mag) Surface Threshold Offset Overrun Length
09 148 ft / 45 m 11,801 ft / 3,597 m 93.99° 89.06° Asphalt 984 ft / 300 m 525 ft / 160 m
27 148 ft / 45 m 11,801 ft / 3,597 m 274.02° 269.09° Asphalt 0 ft / 0 m 525 ft / 160 m

LATI

Details ICAO LATI (TIA)
Name Tirana Rinas
Region Albania
Timezone Europe/Tirane (UTC+1.0)
Stats Elevation 126 ft / 38 m (AMSL)
Location 41.414732° 19.720569°
Runways 1
Magnetic Variation 4.232° E

METAR

LATI 141850Z 14008KT 9999 -RA BKN055 12/04 Q1016 NOSIG

Decode

TAF

TAF TAF LATI 141700Z 1418/1518 14008KT 9999 -RA SCT030 BKN060 TEMPO 1510/1518 18016KT

Decode

Destination Runways

ID Width Length Bearing (true) Bearing (mag) Surface Threshold Offset Overrun Length
18 148 ft / 45 m 8,984 ft / 2,738 m 174.31° 170.08° Asphalt 500 ft / 152 m 0 ft / 0 m
36 148 ft / 45 m 8,984 ft / 2,738 m 354.31° 350.08° Asphalt 500 ft / 152 m 0 ft / 0 m